Time;durP1;ratioP1;P1;durP2;ratioP2;P2;SDS_P1;SDS_P2;PMS_P1;PMS_P2;Temp;Humidity;BMP_temperature;BMP_pressure;BME280_temperature;BME280_humidity;BME280_pressure;Samples;Min_cycle;Max_cycle;Signal;HPM_P1;HPM_P2
2023/10/13 00:01:20;;;;;;;41.78;39.13;;;;;;;;;;5030250;28;20022;-61
2023/10/13 00:03:45;;;;;;;47.83;44.60;;;;;;;;;;5030830;28;20025;-60
2023/10/13 00:06:10;;;;;;;51.80;48.43;;;;;;;;;;5030520;28;20474;-60
2023/10/13 00:08:36;;;;;;;31.77;29.50;;;;;;;;;;5030724;28;20026;-59
2023/10/13 00:11:02;;;;;;;35.63;33.03;;;;;;;;;;5031069;28;20456;-59
2023/10/13 00:13:28;;;;;;;41.78;39.00;;;;;;;;;;5031029;28;20030;-58
2023/10/13 00:15:57;;;;;;;40.05;37.33;;;;;;;;;;5031423;28;20084;-59
2023/10/13 00:18:41;;;;;;;64.68;60.85;;;;;;;;;;5030505;28;20594;-59
2023/10/13 00:21:13;;;;;;;55.70;52.30;;;;;;;;;;5030869;28;20056;-60
2023/10/13 00:23:54;;;;;;;37.80;35.15;;;;;;;;;;5030889;28;20096;-58
2023/10/13 00:26:23;;;;;;;36.03;33.45;;;;;;;;;;5030940;28;20022;-59
2023/10/13 00:28:58;;;;;;;46.67;43.70;;;;;;;;;;5030702;28;20489;-60
2023/10/13 00:31:23;;;;;;;44.78;41.70;;;;;;;;;;5030206;28;20465;-58
2023/10/13 00:33:49;;;;;;;44.85;42.00;;;;;;;;;;5030591;28;20021;-60
2023/10/13 00:36:19;;;;;;;45.95;43.08;;;;;;;;;;5030641;28;20396;-59
2023/10/13 00:38:48;;;;;;;39.60;36.95;;;;;;;;;;5030513;28;20029;-60
2023/10/13 00:41:15;;;;;;;40.65;37.78;;;;;;;;;;5030191;28;20022;-59
2023/10/13 00:44:04;;;;;;;36.42;34.05;;;;;;;;;;5030475;28;20029;-58
2023/10/13 00:46:35;;;;;;;35.88;33.42;;;;;;;;;;5029305;28;20018;-59
2023/10/13 00:49:01;;;;;;;35.33;32.92;;;;;;;;;;5029953;28;20025;-61
2023/10/13 00:51:34;;;;;;;;;;;;;;;;;;5030391;28;20144;-60
2023/10/13 00:54:02;;;;;;;55.03;51.20;;;;;;;;;;5030281;28;19999;-58
2023/10/13 00:56:28;;;;;;;37.33;34.67;;;;;;;;;;5033941;28;20025;-59
2023/10/13 00:58:54;;;;;;;47.35;44.20;;;;;;;;;;5033588;28;20013;-59
2023/10/13 01:01:28;;;;;;;41.90;39.33;;;;;;;;;;5033294;28;20531;-59
2023/10/13 01:03:59;;;;;;;46.38;43.38;;;;;;;;;;5033249;28;20093;-60
2023/10/13 01:06:28;;;;;;;41.33;38.72;;;;;;;;;;5034013;28;20087;-60
2023/10/13 01:09:18;;;;;;;39.97;37.28;;;;;;;;;;5033420;28;20075;-58
2023/10/13 01:11:53;;;;;;;42.80;40.03;;;;;;;;;;5033248;28;20403;-58
2023/10/13 01:14:20;;;;;;;49.47;46.30;;;;;;;;;;5033492;28;20021;-58
2023/10/13 01:16:45;;;;;;;43.55;40.55;;;;;;;;;;5033528;28;20017;-60
2023/10/13 01:19:12;;;;;;;44.08;41.35;;;;;;;;;;5032881;28;20033;-59
2023/10/13 01:21:40;;;;;;;64.43;60.45;;;;;;;;;;5033192;28;20028;-58
2023/10/13 01:24:07;;;;;;;49.10;45.85;;;;;;;;;;5015993;28;20013;-60
2023/10/13 01:26:38;;;;;;;51.22;48.08;;;;;;;;;;5033254;28;20056;-60
2023/10/13 01:29:07;;;;;;;48.50;45.17;;;;;;;;;;5032989;28;20033;-61
2023/10/13 01:31:37;;;;;;;44.22;41.17;;;;;;;;;;5032825;28;20067;-60
2023/10/13 01:34:02;;;;;;;36.45;33.72;;;;;;;;;;5032840;28;20018;-59
2023/10/13 01:36:28;;;;;;;47.87;44.67;;;;;;;;;;5033353;28;20080;-59
2023/10/13 01:38:53;;;;;;;34.55;32.03;;;;;;;;;;5033000;28;20470;-59
2023/10/13 01:41:18;;;;;;;37.70;34.97;;;;;;;;;;5032508;28;20017;-59
2023/10/13 01:43:44;;;;;;;27.83;25.52;;;;;;;;;;5033091;28;20029;-60
2023/10/13 01:46:09;;;;;;;42.37;39.27;;;;;;;;;;5032921;28;20037;-60
2023/10/13 01:48:38;;;;;;;59.10;55.35;;;;;;;;;;5032678;28;20036;-59
2023/10/13 01:51:05;;;;;;;38.97;35.92;;;;;;;;;;5032446;28;20092;-60
2023/10/13 01:53:30;;;;;;;66.72;62.28;;;;;;;;;;5032973;28;20103;-60
2023/10/13 01:55:58;;;;;;;60.47;56.45;;;;;;;;;;5032619;28;20489;-60
2023/10/13 01:58:26;;;;;;;82.13;77.18;;;;;;;;;;5032871;28;20072;-60
2023/10/13 02:00:51;;;;;;;98.50;92.32;;;;;;;;;;5031959;28;20025;-59
2023/10/13 02:03:16;;;;;;;101.20;95.07;;;;;;;;;;5032695;28;20029;-60
2023/10/13 02:05:48;;;;;;;172.43;161.10;;;;;;;;;;5032071;28;20033;-60
2023/10/13 02:08:23;;;;;;;99.20;93.22;;;;;;;;;;5032451;28;20027;-60
2023/10/13 02:10:49;;;;;;;85.78;80.32;;;;;;;;;;5032034;28;20148;-60
2023/10/13 02:13:17;;;;;;;67.40;63.13;;;;;;;;;;5032421;28;20053;-60
2023/10/13 02:15:47;;;;;;;100.10;94.05;;;;;;;;;;5033263;28;20204;-59
2023/10/13 02:18:13;;;;;;;117.43;110.25;;;;;;;;;;5033106;28;20535;-60
2023/10/13 02:20:43;;;;;;;109.05;102.50;;;;;;;;;;5032223;28;20087;-60
2023/10/13 02:23:10;;;;;;;83.82;78.90;;;;;;;;;;5032922;28;20473;-60
2023/10/13 02:25:42;;;;;;;78.00;73.28;;;;;;;;;;5032463;28;20364;-60
2023/10/13 02:28:14;;;;;;;63.92;59.83;;;;;;;;;;5032324;28;20037;-59
2023/10/13 02:30:44;;;;;;;24.35;22.20;;;;;;;;;;5031567;28;20070;-58
2023/10/13 02:33:11;;;;;;;60.97;56.88;;;;;;;;;;5032099;28;20021;-57
2023/10/13 02:35:41;;;;;;;100.82;94.68;;;;;;;;;;5031992;28;20104;-59
2023/10/13 02:38:11;;;;;;;107.65;101.13;;;;;;;;;;5032043;28;20014;-59
2023/10/13 02:40:36;;;;;;;108.55;102.18;;;;;;;;;;5031184;28;20024;-59
2023/10/13 02:43:03;;;;;;;72.87;68.53;;;;;;;;;;5031874;28;20034;-59
2023/10/13 02:45:28;;;;;;;58.45;54.95;;;;;;;;;;5031874;28;20022;-60
2023/10/13 02:48:16;;;;;;;58.50;54.20;;;;;;;;;;5031738;28;20029;-59
2023/10/13 02:50:42;;;;;;;56.90;53.28;;;;;;;;;;5030922;28;20033;-60
2023/10/13 02:53:12;;;;;;;67.95;63.75;;;;;;;;;;5031721;28;20025;-59
2023/10/13 02:55:39;;;;;;;62.72;58.80;;;;;;;;;;5031676;28;20389;-59
2023/10/13 02:58:04;;;;;;;88.18;82.95;;;;;;;;;;5028938;28;20362;-59
2023/10/13 03:00:31;;;;;;;76.82;72.22;;;;;;;;;;5030662;28;20025;-58
2023/10/13 03:03:00;;;;;;;77.32;72.55;;;;;;;;;;5031769;28;20028;-59
2023/10/13 03:05:29;;;;;;;50.75;47.55;;;;;;;;;;5031794;28;20032;-58
2023/10/13 03:07:55;;;;;;;75.82;71.43;;;;;;;;;;5031616;28;20032;-59
2023/10/13 03:10:21;;;;;;;51.50;47.90;;;;;;;;;;5029944;28;20052;-58
2023/10/13 03:12:48;;;;;;;95.75;90.25;;;;;;;;;;5031999;28;20101;-59
2023/10/13 03:17:43;;;;;;;46.20;43.25;;;;;;;;;;5030792;28;20024;-59
2023/10/13 03:20:11;;;;;;;32.30;29.98;;;;;;;;;;5030294;28;20029;-62
2023/10/13 03:22:37;;;;;;;36.80;34.05;;;;;;;;;;5031309;28;20017;-59
2023/10/13 03:25:06;;;;;;;22.57;20.87;;;;;;;;;;5031132;28;20032;-59
2023/10/13 03:28:16;;;;;;;21.45;19.77;;;;;;;;;;5030968;28;20025;-59
2023/10/13 03:30:30;;;;;;;23.70;21.80;;;;;;;;;;5024726;28;20404;-59
2023/10/13 03:32:56;;;;;;;26.83;24.77;;;;;;;;;;5031158;28;20477;-59
2023/10/13 03:35:24;;;;;;;27.08;25.05;;;;;;;;;;5031422;28;20031;-58
2023/10/13 03:37:52;;;;;;;57.90;54.30;;;;;;;;;;5031321;28;20025;-59
2023/10/13 03:43:09;;;;;;;78.35;73.40;;;;;;;;;;5031315;28;20025;-59
2023/10/13 03:45:42;;;;;;;50.10;46.65;;;;;;;;;;5030530;28;20021;-60
2023/10/13 03:48:16;;;;;;;51.38;48.22;;;;;;;;;;5030863;28;20021;-60
2023/10/13 03:50:48;;;;;;;86.78;81.60;;;;;;;;;;5030120;28;20485;-59
2023/10/13 03:53:13;;;;;;;25.30;23.15;;;;;;;;;;5030759;28;20099;-60
2023/10/13 03:55:39;;;;;;;21.30;19.73;;;;;;;;;;5030569;28;20052;-59
2023/10/13 03:58:04;;;;;;;31.65;29.40;;;;;;;;;;5030867;28;20036;-58
2023/10/13 04:00:31;;;;;;;23.07;21.40;;;;;;;;;;5030152;28;20388;-59
2023/10/13 04:05:40;;;;;;;27.15;25.02;;;;;;;;;;5031199;28;20029;-60
2023/10/13 04:08:44;;;;;;;31.42;29.23;;;;;;;;;;5030767;28;20093;-58
2023/10/13 04:16:34;;;;;;;50.15;47.05;;;;;;;;;;5030927;28;20020;-58
2023/10/13 04:21:55;;;;;;;14.23;12.90;;;;;;;;;;5029988;28;20024;-58
2023/10/13 04:29:55;;;;;;;25.55;23.33;;;;;;;;;;5031384;28;20389;-59
2023/10/13 04:32:32;;;;;;;39.20;36.40;;;;;;;;;;5033863;28;20064;-59
2023/10/13 04:37:54;;;;;;;22.13;20.35;;;;;;;;;;5034496;28;20025;-59
2023/10/13 04:40:24;;;;;;;23.45;21.75;;;;;;;;;;5033664;28;20071;-60
2023/10/13 04:42:49;;;;;;;25.95;23.98;;;;;;;;;;5034091;28;20021;-59
2023/10/13 04:46:25;;;;;;;26.33;24.33;;;;;;;;;;5033834;28;20024;-60
2023/10/13 04:48:27;;;;;;;20.27;18.73;;;;;;;;;;5030018;28;20068;-58
2023/10/13 04:51:18;;;;;;;27.52;25.30;;;;;;;;;;5033417;28;20393;-58
2023/10/13 04:54:00;;;;;;;21.70;19.90;;;;;;;;;;5033755;28;20033;-58
2023/10/13 04:59:17;;;;;;;26.00;24.05;;;;;;;;;;5033761;28;20018;-58
2023/10/13 05:02:42;;;;;;;13.18;11.75;;;;;;;;;;5033482;28;20028;-60
2023/10/13 05:46:35;;;;;;;24.73;22.83;;;;;;;;;;5033134;28;20025;-59
2023/10/13 06:29:33;;;;;;;11.50;9.43;;;;;;;;;;5032022;28;20029;-60
2023/10/13 06:32:01;;;;;;;8.80;6.57;;;;;;;;;;5036857;28;20020;-60
2023/10/13 06:34:37;;;;;;;12.20;10.20;;;;;;;;;;5052149;28;20025;-59
2023/10/13 06:37:21;;;;;;;18.17;16.60;;;;;;;;;;5051992;28;20442;-59
2023/10/13 06:39:46;;;;;;;17.05;15.65;;;;;;;;;;5051545;28;20025;-60
2023/10/13 06:42:12;;;;;;;25.13;23.20;;;;;;;;;;5051452;28;20373;-60
2023/10/13 06:44:39;;;;;;;22.03;20.27;;;;;;;;;;5051829;28;20037;-59
2023/10/13 06:47:05;;;;;;;21.75;19.98;;;;;;;;;;5051794;28;20104;-60
2023/10/13 06:49:32;;;;;;;24.45;22.40;;;;;;;;;;5051042;28;20025;-60
2023/10/13 06:52:00;;;;;;;22.88;20.98;;;;;;;;;;5049872;28;20021;-59
2023/10/13 06:54:25;;;;;;;22.75;20.88;;;;;;;;;;5051620;28;20427;-60
2023/10/13 06:56:52;;;;;;;47.37;44.23;;;;;;;;;;5051720;28;20021;-60
2023/10/13 06:59:17;;;;;;;41.53;38.70;;;;;;;;;;5042878;28;20015;-59
2023/10/13 07:01:44;;;;;;;42.13;39.27;;;;;;;;;;5031243;28;20608;-58
2023/10/13 07:04:13;;;;;;;36.53;33.95;;;;;;;;;;5032106;28;20021;-58
2023/10/13 07:06:42;;;;;;;34.65;32.08;;;;;;;;;;5031485;28;20026;-58
2023/10/13 07:09:15;;;;;;;37.08;34.58;;;;;;;;;;5031313;28;20029;-60
2023/10/13 07:11:42;;;;;;;21.10;19.38;;;;;;;;;;5030988;28;20045;-59
2023/10/13 07:14:11;;;;;;;26.88;24.40;;;;;;;;;;5031301;28;20428;-60
2023/10/13 07:16:58;;;;;;;44.53;41.08;;;;;;;;;;5031401;28;20021;-58
2023/10/13 07:19:24;;;;;;;24.20;22.13;;;;;;;;;;5031101;28;20503;-58
2023/10/13 07:21:58;;;;;;;41.50;38.60;;;;;;;;;;5030919;28;20481;-59
2023/10/13 07:24:24;;;;;;;37.58;34.72;;;;;;;;;;5031365;28;20071;-60
2023/10/13 07:26:57;;;;;;;18.42;16.58;;;;;;;;;;5032006;28;20026;-58
2023/10/13 07:29:24;;;;;;;24.35;22.02;;;;;;;;;;5030914;28;20051;-60
2023/10/13 07:31:50;;;;;;;27.33;24.88;;;;;;;;;;5030991;28;20101;-59
2023/10/13 07:34:25;;;;;;;18.25;15.65;;;;;;;;;;5030796;28;20104;-58
2023/10/13 07:36:51;;;;;;;35.75;32.67;;;;;;;;;;5030976;28;20397;-57
2023/10/13 07:39:25;;;;;;;27.20;24.98;;;;;;;;;;5030891;28;20019;-59
2023/10/13 07:41:53;;;;;;;30.08;27.58;;;;;;;;;;5031436;28;20021;-59
2023/10/13 07:44:20;;;;;;;22.75;20.65;;;;;;;;;;5031372;28;20473;-60
2023/10/13 07:46:52;;;;;;;24.48;22.38;;;;;;;;;;5031190;28;20021;-59
2023/10/13 07:49:20;;;;;;;24.05;21.75;;;;;;;;;;5031098;28;20017;-60
2023/10/13 07:51:48;;;;;;;32.50;29.77;;;;;;;;;;5031052;28;20021;-58
2023/10/13 07:54:21;;;;;;;39.33;36.25;;;;;;;;;;5030747;28;20093;-58
2023/10/13 07:56:46;;;;;;;27.50;25.13;;;;;;;;;;5031270;28;20075;-59
2023/10/13 07:59:13;;;;;;;27.37;24.87;;;;;;;;;;5030566;28;20017;-60
2023/10/13 08:01:42;;;;;;;47.90;44.60;;;;;;;;;;5029334;28;20591;-59
2023/10/13 08:06:36;;;;;;;29.08;26.70;;;;;;;;;;5035258;28;20377;-58
2023/10/13 08:09:29;;;;;;;32.80;30.35;;;;;;;;;;5034815;28;20460;-60
2023/10/13 08:11:54;;;;;;;38.78;36.08;;;;;;;;;;5035073;28;20017;-59
2023/10/13 08:14:23;;;;;;;;;;;;;;;;;;5035595;28;20026;-58
2023/10/13 08:19:15;;;;;;;39.90;37.30;;;;;;;;;;5035244;28;20113;-57
2023/10/13 08:21:48;;;;;;;30.02;27.67;;;;;;;;;;5035149;28;20136;-59
2023/10/13 08:24:15;;;;;;;30.58;28.45;;;;;;;;;;5034595;28;20033;-63
2023/10/13 08:34:38;;;;;;;47.42;44.35;;;;;;;;;;5035045;28;20022;-60
2023/10/13 08:37:19;;;;;;;56.92;53.15;;;;;;;;;;5035514;28;20017;-58
2023/10/13 08:42:34;;;;;;;;;;;;;;;;;;5036203;28;20040;-60
2023/10/13 08:45:04;;;;;;;58.95;55.08;;;;;;;;;;5036213;28;19978;-60
2023/10/13 08:47:36;;;;;;;64.30;60.38;;;;;;;;;;5035495;28;20067;-58
2023/10/13 08:50:10;;;;;;;115.40;108.30;;;;;;;;;;5034245;28;20009;-59
2023/10/13 08:52:46;;;;;;;45.05;42.42;;;;;;;;;;5035137;28;20014;-59
2023/10/13 08:55:37;;;;;;;90.80;85.70;;;;;;;;;;5035332;28;20021;-59
2023/10/13 08:58:03;;;;;;;67.97;64.20;;;;;;;;;;5034792;28;20041;-59
2023/10/13 09:03:38;;;;;;;33.88;31.83;;;;;;;;;;5023934;28;20144;-61
2023/10/13 09:06:06;;;;;;;78.68;74.03;;;;;;;;;;5034534;28;20026;-58
2023/10/13 09:08:58;;;;;;;22.55;21.15;;;;;;;;;;5034996;28;20114;-61
2023/10/13 09:11:26;;;;;;;22.35;20.92;;;;;;;;;;5036576;28;20033;-58
2023/10/13 09:13:52;;;;;;;55.83;52.63;;;;;;;;;;5037443;28;20481;-59
2023/10/13 09:16:51;;;;;;;26.40;24.77;;;;;;;;;;5037122;28;20021;-60
2023/10/13 09:19:05;;;;;;;32.88;30.90;;;;;;;;;;5034845;28;20032;-60
2023/10/13 09:24:21;;;;;;;21.23;19.83;;;;;;;;;;5035275;28;20025;-60
2023/10/13 09:26:53;;;;;;;27.10;25.38;;;;;;;;;;5033479;28;20119;-60
2023/10/13 09:29:18;;;;;;;20.15;18.67;;;;;;;;;;5034314;28;20091;-61
2023/10/13 09:31:44;;;;;;;21.65;20.25;;;;;;;;;;5033655;28;20021;-60
2023/10/13 09:34:10;;;;;;;26.73;24.98;;;;;;;;;;5033336;28;20021;-60
2023/10/13 09:36:35;;;;;;;20.27;18.90;;;;;;;;;;5033182;28;20539;-60
2023/10/13 09:39:12;;;;;;;45.15;42.33;;;;;;;;;;5034197;28;20025;-59
2023/10/13 09:41:39;;;;;;;11.60;10.77;;;;;;;;;;5033053;28;20025;-60
2023/10/13 09:44:08;;;;;;;19.77;18.45;;;;;;;;;;5032943;28;20033;-61
2023/10/13 09:46:35;;;;;;;34.05;31.85;;;;;;;;;;5033180;28;20021;-60
2023/10/13 09:49:08;;;;;;;22.02;20.55;;;;;;;;;;5032434;28;20022;-60
2023/10/13 09:51:33;;;;;;;25.48;23.75;;;;;;;;;;5033743;28;20029;-58
2023/10/13 09:54:06;;;;;;;27.30;25.47;;;;;;;;;;5032866;28;20083;-59
2023/10/13 09:56:43;;;;;;;23.30;21.73;;;;;;;;;;5032708;28;20014;-58
2023/10/13 09:59:18;;;;;;;21.88;20.13;;;;;;;;;;5032420;28;20545;-60
2023/10/13 10:01:59;;;;;;;24.73;23.10;;;;;;;;;;5032487;28;20029;-59
2023/10/13 10:04:24;;;;;;;56.80;53.38;;;;;;;;;;5033297;28;20021;-59
2023/10/13 10:06:56;;;;;;;41.63;38.57;;;;;;;;;;5033268;28;20041;-60
2023/10/13 10:09:34;;;;;;;33.85;31.48;;;;;;;;;;5032752;28;20032;-60
2023/10/13 10:12:11;;;;;;;43.10;39.88;;;;;;;;;;5032654;28;20034;-58
2023/10/13 10:14:58;;;;;;;33.35;30.90;;;;;;;;;;5032759;28;20373;-59
2023/10/13 10:17:29;;;;;;;37.30;34.28;;;;;;;;;;5034414;28;20049;-60
2023/10/13 10:19:55;;;;;;;40.50;37.67;;;;;;;;;;5036971;28;20033;-60
2023/10/13 10:22:33;;;;;;;29.73;27.42;;;;;;;;;;5032815;28;20025;-60
2023/10/13 10:24:59;;;;;;;56.70;52.88;;;;;;;;;;5032752;28;20021;-60
2023/10/13 10:27:25;;;;;;;32.03;29.25;;;;;;;;;;5031894;28;20025;-61
2023/10/13 10:29:53;;;;;;;48.28;44.63;;;;;;;;;;5031691;28;20504;-60
2023/10/13 10:32:18;;;;;;;29.88;27.42;;;;;;;;;;5031680;28;20033;-61
2023/10/13 10:34:44;;;;;;;30.37;27.93;;;;;;;;;;5031839;28;20024;-59
2023/10/13 10:37:09;;;;;;;24.87;22.80;;;;;;;;;;5032485;28;20083;-58
2023/10/13 10:39:49;;;;;;;24.07;21.93;;;;;;;;;;5031593;28;20042;-58
2023/10/13 10:42:32;;;;;;;15.90;14.50;;;;;;;;;;5031954;28;20460;-59
2023/10/13 10:45:05;;;;;;;27.30;25.02;;;;;;;;;;5031879;28;20032;-61
2023/10/13 10:47:30;;;;;;;29.60;27.40;;;;;;;;;;5032182;28;20073;-60
2023/10/13 10:49:57;;;;;;;26.92;24.98;;;;;;;;;;5031453;28;20105;-59
2023/10/13 10:52:22;;;;;;;21.67;20.02;;;;;;;;;;5031936;28;20477;-60
2023/10/13 10:54:58;;;;;;;35.05;32.55;;;;;;;;;;5031582;28;20088;-60
2023/10/13 10:57:28;;;;;;;19.92;18.17;;;;;;;;;;5031883;28;20026;-60
2023/10/13 11:00:11;;;;;;;24.38;22.10;;;;;;;;;;5030989;28;20075;-59
2023/10/13 11:02:36;;;;;;;39.53;36.72;;;;;;;;;;5031722;28;20515;-59
2023/10/13 11:05:02;;;;;;;26.42;24.40;;;;;;;;;;5031189;28;20022;-60
2023/10/13 11:07:28;;;;;;;26.77;24.65;;;;;;;;;;5031787;28;20021;-61
2023/10/13 11:10:04;;;;;;;36.35;33.58;;;;;;;;;;5031085;28;20028;-59
2023/10/13 11:12:33;;;;;;;34.22;32.08;;;;;;;;;;5031919;28;20033;-59
2023/10/13 11:15:33;;;;;;;22.92;21.38;;;;;;;;;;5032714;28;20025;-59
2023/10/13 11:17:58;;;;;;;24.77;23.08;;;;;;;;;;5031756;28;20017;-61
2023/10/13 11:20:33;;;;;;;23.00;21.00;;;;;;;;;;5030929;28;20029;-60
2023/10/13 11:22:59;;;;;;;36.47;33.88;;;;;;;;;;5031879;28;20457;-60
2023/10/13 11:25:35;;;;;;;21.45;19.63;;;;;;;;;;5031121;28;20087;-59
2023/10/13 11:28:27;;;;;;;32.85;30.67;;;;;;;;;;5031556;28;20021;-61
2023/10/13 11:30:53;;;;;;;14.25;12.63;;;;;;;;;;5030803;28;20028;-60
2023/10/13 11:33:21;;;;;;;29.15;27.13;;;;;;;;;;5030940;28;20427;-59
2023/10/13 11:38:27;;;;;;;15.10;13.65;;;;;;;;;;5031105;28;20440;-60
2023/10/13 11:41:08;;;;;;;31.20;29.17;;;;;;;;;;5030477;28;20097;-60
2023/10/13 11:48:36;;;;;;;21.77;19.98;;;;;;;;;;5031672;28;20071;-59
2023/10/13 11:51:08;;;;;;;39.28;36.83;;;;;;;;;;5031415;28;20017;-59
2023/10/13 11:53:34;;;;;;;37.78;35.42;;;;;;;;;;5033086;28;20030;-59
2023/10/13 11:55:59;;;;;;;18.45;16.95;;;;;;;;;;5031570;28;20014;-59
2023/10/13 11:58:24;;;;;;;22.33;20.53;;;;;;;;;;5031339;28;20020;-61
2023/10/13 12:06:42;;;;;;;32.25;29.75;;;;;;;;;;5030878;28;20060;-60
2023/10/13 12:10:02;;;;;;;14.27;9.48;;;;;;;;;;5030854;28;20025;-60
2023/10/13 12:12:00;;;;;;;;;;;;;;;;;;5031999;28;20409;-59
2023/10/13 12:14:29;;;;;;;38.63;35.92;;;;;;;;;;5031366;28;19905;-60
2023/10/13 12:16:55;;;;;;;19.48;17.45;;;;;;;;;;5030769;28;20010;-58
2023/10/13 12:19:23;;;;;;;37.33;34.67;;;;;;;;;;5030995;28;20504;-61
2023/10/13 12:21:48;;;;;;;27.85;25.65;;;;;;;;;;5030779;28;20105;-60
2023/10/13 12:26:58;;;;;;;27.83;25.35;;;;;;;;;;5031620;28;20021;-59
2023/10/13 12:29:28;;;;;;;35.80;33.23;;;;;;;;;;5030538;28;20393;-59
2023/10/13 12:32:05;;;;;;;45.33;42.22;;;;;;;;;;5029202;28;20100;-60
2023/10/13 12:34:57;;;;;;;20.80;18.77;;;;;;;;;;5030330;28;20084;-60
2023/10/13 12:51:23;;;;;;;21.15;19.30;;;;;;;;;;5032373;28;20237;-58
2023/10/13 12:53:49;;;;;;;42.75;39.17;;;;;;;;;;5034139;28;20044;-58
2023/10/13 12:56:15;;;;;;;41.28;38.08;;;;;;;;;;5033827;28;20018;-60
2023/10/13 12:58:41;;;;;;;54.13;50.45;;;;;;;;;;5033945;28;20036;-60
2023/10/13 13:01:06;;;;;;;92.57;86.63;;;;;;;;;;5033265;28;20092;-61
2023/10/13 13:03:32;;;;;;;48.30;44.73;;;;;;;;;;5033772;28;20017;-58
2023/10/13 13:05:57;;;;;;;50.08;46.75;;;;;;;;;;5033892;28;20100;-58
2023/10/13 13:08:22;;;;;;;50.27;46.50;;;;;;;;;;5033969;28;20035;-59
2023/10/13 13:10:48;;;;;;;41.63;38.37;;;;;;;;;;5033381;28;20033;-60
2023/10/13 13:13:16;;;;;;;43.78;40.47;;;;;;;;;;5033362;28;20037;-60
2023/10/13 13:15:41;;;;;;;60.85;56.38;;;;;;;;;;5033656;28;20021;-60
2023/10/13 13:18:11;;;;;;;32.43;29.77;;;;;;;;;;5033935;28;20025;-60
2023/10/13 13:20:39;;;;;;;37.60;34.60;;;;;;;;;;5032937;28;20080;-58
2023/10/13 13:23:04;;;;;;;41.83;38.72;;;;;;;;;;5033668;28;20029;-60
2023/10/13 13:25:30;;;;;;;60.10;56.23;;;;;;;;;;5033110;28;20052;-60
2023/10/13 13:27:55;;;;;;;61.95;57.90;;;;;;;;;;5033657;28;20029;-59
2023/10/13 13:30:22;;;;;;;38.00;35.00;;;;;;;;;;5033188;28;20439;-60
2023/10/13 13:32:47;;;;;;;48.05;45.10;;;;;;;;;;5033651;28;20036;-60
2023/10/13 13:35:18;;;;;;;38.03;35.25;;;;;;;;;;5034025;28;20021;-58
2023/10/13 13:37:44;;;;;;;18.70;17.02;;;;;;;;;;5033684;28;20640;-59
2023/10/13 13:40:15;;;;;;;40.83;38.10;;;;;;;;;;5032613;28;20024;-59
2023/10/13 13:42:42;;;;;;;37.17;34.38;;;;;;;;;;5033266;28;20481;-59
2023/10/13 13:45:21;;;;;;;43.25;40.28;;;;;;;;;;5033129;28;20029;-58
2023/10/13 13:47:53;;;;;;;28.80;26.67;;;;;;;;;;5033026;28;20100;-58
2023/10/13 13:50:23;;;;;;;80.38;75.35;;;;;;;;;;5032629;28;20013;-59
2023/10/13 13:52:49;;;;;;;27.45;25.20;;;;;;;;;;5032872;28;20029;-58
2023/10/13 13:55:17;;;;;;;31.33;28.83;;;;;;;;;;5032784;28;20033;-57
2023/10/13 13:57:43;;;;;;;31.75;29.17;;;;;;;;;;5032883;28;20431;-59
2023/10/13 14:00:08;;;;;;;55.42;51.38;;;;;;;;;;5032248;28;20021;-59
2023/10/13 14:02:35;;;;;;;41.13;38.30;;;;;;;;;;5031636;28;20516;-59
2023/10/13 14:05:02;;;;;;;;;;;;;;;;;;5033448;28;20609;-60
2023/10/13 14:07:32;;;;;;;41.03;38.28;;;;;;;;;;5032675;28;19932;-59
2023/10/13 14:10:07;;;;;;;64.53;60.40;;;;;;;;;;5032380;28;20026;-60
2023/10/13 14:12:41;;;;;;;43.85;40.95;;;;;;;;;;5032172;28;20025;-59
2023/10/13 14:15:19;;;;;;;43.80;40.70;;;;;;;;;;5032647;28;20109;-58
2023/10/13 14:17:45;;;;;;;24.98;22.90;;;;;;;;;;5032444;28;20022;-58
2023/10/13 14:20:18;;;;;;;48.17;44.78;;;;;;;;;;5031629;28;20030;-59
2023/10/13 14:22:43;;;;;;;53.22;49.35;;;;;;;;;;5032624;28;20501;-58
2023/10/13 14:25:14;;;;;;;72.00;67.57;;;;;;;;;;5034040;28;20060;-58
2023/10/13 14:27:39;;;;;;;54.00;50.40;;;;;;;;;;5033792;28;20489;-58
2023/10/13 14:30:04;;;;;;;32.75;30.42;;;;;;;;;;5034191;28;20053;-61
2023/10/13 14:32:30;;;;;;;28.58;26.20;;;;;;;;;;5033327;28;20033;-59
2023/10/13 14:34:56;;;;;;;34.70;32.03;;;;;;;;;;5032517;28;20021;-58
2023/10/13 14:37:29;;;;;;;32.10;29.88;;;;;;;;;;5032612;28;20041;-58
2023/10/13 14:39:56;;;;;;;64.57;60.65;;;;;;;;;;5031734;28;20022;-60
2023/10/13 14:42:22;;;;;;;68.63;64.47;;;;;;;;;;5032789;28;20018;-60
2023/10/13 14:44:55;;;;;;;69.20;64.93;;;;;;;;;;5031969;28;20026;-60
2023/10/13 14:47:24;;;;;;;106.10;99.78;;;;;;;;;;5032340;28;20018;-60
2023/10/13 14:49:49;;;;;;;81.95;76.97;;;;;;;;;;5031379;28;20386;-60
2023/10/13 14:52:17;;;;;;;43.00;40.00;;;;;;;;;;5031802;28;20028;-59
2023/10/13 14:54:42;;;;;;;51.33;47.70;;;;;;;;;;5031668;28;20025;-59
2023/10/13 14:57:07;;;;;;;38.65;35.90;;;;;;;;;;5031952;28;20017;-58
2023/10/13 14:59:33;;;;;;;45.70;42.60;;;;;;;;;;5031243;28;20026;-60
2023/10/13 15:01:59;;;;;;;43.10;40.33;;;;;;;;;;5032017;28;20056;-60
2023/10/13 15:04:24;;;;;;;62.67;58.42;;;;;;;;;;5031505;28;20029;-60
2023/10/13 15:06:50;;;;;;;72.53;68.05;;;;;;;;;;5031904;28;20136;-60
2023/10/13 15:09:23;;;;;;;71.13;66.75;;;;;;;;;;5031149;28;20041;-58
2023/10/13 15:11:48;;;;;;;101.22;95.18;;;;;;;;;;5031113;28;20457;-61
2023/10/13 15:14:13;;;;;;;95.03;89.57;;;;;;;;;;5030932;28;20112;-58
2023/10/13 15:16:38;;;;;;;86.88;81.72;;;;;;;;;;5031359;28;20036;-59
2023/10/13 15:19:04;;;;;;;42.33;39.42;;;;;;;;;;5030829;28;20036;-60
2023/10/13 15:21:35;;;;;;;58.17;54.75;;;;;;;;;;5030974;28;20049;-59
2023/10/13 15:24:13;;;;;;;69.00;64.55;;;;;;;;;;5031186;28;20036;-58
2023/10/13 15:26:41;;;;;;;91.88;86.43;;;;;;;;;;5031064;28;20128;-58
2023/10/13 15:29:09;;;;;;;103.72;97.80;;;;;;;;;;5030807;28;20018;-59
2023/10/13 15:34:06;;;;;;;59.95;56.38;;;;;;;;;;5030692;28;20032;-58
2023/10/13 15:36:34;;;;;;;76.97;71.80;;;;;;;;;;5031335;28;20477;-58
2023/10/13 15:39:00;;;;;;;58.22;54.22;;;;;;;;;;5030862;28;20366;-58
2023/10/13 15:41:26;;;;;;;50.88;47.75;;;;;;;;;;5030872;28;20018;-59
2023/10/13 15:43:52;;;;;;;;;;;;;;;;;;5031362;28;20021;-61
2023/10/13 15:46:17;;;;;;;40.30;37.40;;;;;;;;;;5031061;28;19928;-61
2023/10/13 15:48:45;;;;;;;25.15;23.20;;;;;;;;;;5031031;28;20108;-60
2023/10/13 15:51:12;;;;;;;63.83;59.97;;;;;;;;;;5030606;28;20072;-60
2023/10/13 15:53:37;;;;;;;56.58;52.90;;;;;;;;;;5030636;28;20029;-59
2023/10/13 15:56:06;;;;;;;61.50;57.60;;;;;;;;;;5031142;28;20036;-59
2023/10/13 15:58:31;;;;;;;60.55;56.58;;;;;;;;;;5030385;28;20493;-60
2023/10/13 16:00:56;;;;;;;93.45;87.70;;;;;;;;;;5030455;28;20025;-59
2023/10/13 16:03:23;;;;;;;29.93;27.80;;;;;;;;;;5030934;28;20045;-59
2023/10/13 16:05:49;;;;;;;48.95;45.67;;;;;;;;;;5029306;28;20405;-60
2023/10/13 16:08:14;;;;;;;40.08;37.25;;;;;;;;;;5030585;28;20025;-61
2023/10/13 16:10:39;;;;;;;44.07;41.00;;;;;;;;;;5030317;28;20030;-60
2023/10/13 16:13:09;;;;;;;36.38;33.25;;;;;;;;;;5030712;28;20033;-58
2023/10/13 16:15:40;;;;;;;25.20;23.10;;;;;;;;;;5030420;28;20045;-57
2023/10/13 16:18:06;;;;;;;73.88;68.95;;;;;;;;;;5030789;28;20480;-59
2023/10/13 16:20:31;;;;;;;;;;;;;;;;;;5030526;28;20489;-59
2023/10/13 16:22:56;;;;;;;75.40;70.80;;;;;;;;;;5030343;28;20235;-59
2023/10/13 16:25:24;;;;;;;68.10;63.88;;;;;;;;;;5031498;28;20026;-59
2023/10/13 16:27:49;;;;;;;50.10;46.83;;;;;;;;;;5034510;28;20032;-59
2023/10/13 16:30:19;;;;;;;40.03;37.17;;;;;;;;;;5034079;28;20014;-59
2023/10/13 16:32:49;;;;;;;41.33;38.50;;;;;;;;;;5034326;28;20037;-59
2023/10/13 16:35:17;;;;;;;49.63;45.63;;;;;;;;;;5034118;28;20096;-60
2023/10/13 16:37:46;;;;;;;54.92;51.08;;;;;;;;;;5034255;28;20525;-60
2023/10/13 16:40:15;;;;;;;37.58;34.85;;;;;;;;;;5033795;28;20014;-60
2023/10/13 16:42:41;;;;;;;65.38;60.30;;;;;;;;;;5034047;28;20029;-59
2023/10/13 16:45:14;;;;;;;71.28;66.50;;;;;;;;;;5034234;28;20492;-59
2023/10/13 16:47:43;;;;;;;52.40;48.53;;;;;;;;;;5034173;28;20331;-59
2023/10/13 16:50:09;;;;;;;21.83;20.10;;;;;;;;;;5033724;28;20532;-58
2023/10/13 16:52:34;;;;;;;29.50;27.15;;;;;;;;;;5034220;28;20389;-59
2023/10/13 16:54:59;;;;;;;24.63;22.40;;;;;;;;;;5034621;28;20013;-59
2023/10/13 16:57:24;;;;;;;28.95;26.50;;;;;;;;;;5036209;28;20048;-58
2023/10/13 16:59:49;;;;;;;24.77;22.60;;;;;;;;;;5035709;28;20026;-59
2023/10/13 17:02:15;;;;;;;45.03;42.05;;;;;;;;;;5037698;28;20009;-58
2023/10/13 17:04:41;;;;;;;21.33;19.47;;;;;;;;;;5041193;28;20017;-60
2023/10/13 17:07:07;;;;;;;23.85;21.67;;;;;;;;;;5038344;28;20056;-60
2023/10/13 17:09:33;;;;;;;35.50;33.03;;;;;;;;;;5035744;28;20018;-59
2023/10/13 17:11:58;;;;;;;41.20;38.28;;;;;;;;;;5033956;28;20048;-58
2023/10/13 17:14:23;;;;;;;31.80;29.27;;;;;;;;;;5033668;28;20477;-59
2023/10/13 17:16:48;;;;;;;23.80;21.83;;;;;;;;;;5033679;28;20025;-59